Time;durP1;ratioP1;P1;durP2;ratioP2;P2;SDS_P1;SDS_P2;PMS_P1;PMS_P2;Temp;Humidity;BMP_temperature;BMP_pressure;BME280_temperature;BME280_humidity;BME280_pressure;Samples;Min_cycle;Max_cycle;Signal;HPM_P1;HPM_P2
2023/12/13 00:05:01;;;;;;;57.00;31.60;;;;;;;0.94;100.00;98039.08;274216;1266;22307;-85
2023/12/13 00:11:04;;;;;;;58.30;30.30;;;;;;;0.89;100.00;98013.20;274277;1266;22188;-84
2023/12/13 00:17:28;;;;;;;56.20;30.10;;;;;;;0.91;100.00;98006.93;274215;1273;22203;-84
2023/12/13 00:23:54;;;;;;;72.60;32.70;;;;;;;0.94;100.00;97999.88;274277;1265;23209;-84
2023/12/13 00:30:39;;;;;;;62.60;29.70;;;;;;;1.00;100.00;97999.45;274499;1270;22242;-85
2023/12/13 00:37:24;;;;;;;55.40;28.20;;;;;;;1.04;100.00;97987.80;274377;1260;22320;-84
2023/12/13 00:43:52;;;;;;;64.40;29.20;;;;;;;1.08;100.00;97979.08;272994;1266;22967;-85
2023/12/13 00:49:56;;;;;;;56.00;29.40;;;;;;;1.10;100.00;97972.98;271522;1266;22540;-84
2023/12/13 00:55:58;;;;;;;54.80;27.50;;;;;;;1.11;100.00;97957.14;270665;1266;23818;-84
2023/12/13 01:02:00;;;;;;;56.70;29.40;;;;;;;1.10;100.00;97948.17;270935;1266;22654;-84
2023/12/13 01:08:03;;;;;;;70.70;30.20;;;;;;;1.08;100.00;97940.29;271728;1266;22380;-84
2023/12/13 01:14:05;;;;;;;55.80;28.50;;;;;;;1.09;100.00;97939.36;273171;1266;22338;-84
2023/12/13 01:20:09;;;;;;;57.20;28.10;;;;;;;1.03;100.00;97941.59;271594;1266;24194;-84
2023/12/13 01:26:14;;;;;;;50.80;26.90;;;;;;;0.95;100.00;97938.34;272002;1267;22555;-84
2023/12/13 01:32:16;;;;;;;53.90;29.10;;;;;;;0.94;100.00;97924.82;271220;1266;22540;-84
2023/12/13 01:38:18;;;;;;;58.30;27.50;;;;;;;0.93;100.00;97912.38;271406;1266;22549;-83
2023/12/13 01:44:24;;;;;;;50.70;27.20;;;;;;;0.95;100.00;97913.05;272540;1266;22376;-84
2023/12/13 01:50:27;;;;;;;68.70;30.50;;;;;;;0.93;100.00;97914.55;274366;1273;22167;-84
2023/12/13 01:57:11;;;;;;;60.20;29.60;;;;;;;0.92;100.00;97901.65;274342;1270;22263;-84
2023/12/13 02:03:58;;;;;;;49.70;24.80;;;;;;;0.98;100.00;97889.60;274039;1273;22246;-84
2023/12/13 02:10:23;;;;;;;43.60;24.10;;;;;;;1.01;100.00;97876.28;274268;1273;23207;-84
2023/12/13 02:16:49;;;;;;;42.00;22.60;;;;;;;0.98;100.00;97873.36;274149;1273;22328;-84
2023/12/13 02:22:51;;;;;;;42.70;21.40;;;;;;;0.99;100.00;97856.83;271676;1257;22587;-84
2023/12/13 02:29:33;;;;;;;42.70;20.90;;;;;;;1.04;100.00;97856.20;271836;1266;25378;-84
2023/12/13 02:36:07;;;;;;;39.90;20.80;;;;;;;1.03;100.00;97840.71;272199;1249;22532;-90
2023/12/13 02:42:09;;;;;;;35.30;19.50;;;;;;;1.05;100.00;97828.83;271051;1269;22544;-89
2023/12/13 02:48:11;;;;;;;46.50;23.10;;;;;;;1.09;100.00;97824.86;272042;1269;23772;-89
2023/12/13 02:54:14;;;;;;;45.70;23.70;;;;;;;1.11;100.00;97818.23;270921;1269;22710;-91
2023/12/13 03:00:16;;;;;;;46.40;23.90;;;;;;;1.13;100.00;97814.59;271554;1271;22984;-90
2023/12/13 03:06:18;;;;;;;46.80;25.00;;;;;;;1.19;100.00;97807.22;272796;1268;22487;-90
2023/12/13 03:12:20;;;;;;;46.40;23.40;;;;;;;1.23;100.00;97802.02;273613;1269;22249;-89
2023/12/13 03:18:22;;;;;;;50.70;24.40;;;;;;;1.27;100.00;97799.73;273536;1268;22375;-90
2023/12/13 03:24:24;;;;;;;51.70;25.30;;;;;;;1.28;100.00;97788.61;271865;1269;22564;-91
2023/12/13 03:30:26;;;;;;;53.70;25.00;;;;;;;1.31;100.00;97780.28;272145;1269;22506;-90
2023/12/13 03:36:29;;;;;;;56.90;27.80;;;;;;;1.35;100.00;97776.70;272594;1269;23103;-88
2023/12/13 03:42:31;;;;;;;48.70;25.00;;;;;;;1.36;100.00;97764.56;270832;1270;22579;-89
2023/12/13 03:48:33;;;;;;;56.10;26.90;;;;;;;1.37;100.00;97766.43;270596;1270;22534;-89
2023/12/13 03:54:35;;;;;;;56.20;28.60;;;;;;;1.37;100.00;97766.33;271232;1269;22447;-91
2023/12/13 04:00:37;;;;;;;53.60;27.20;;;;;;;1.38;100.00;97763.77;273404;1270;22397;-89
2023/12/13 04:06:39;;;;;;;55.70;27.10;;;;;;;1.42;100.00;97763.86;273138;1270;23489;-90
2023/12/13 04:12:41;;;;;;;49.20;25.60;;;;;;;1.45;100.00;97765.34;272668;1270;22656;-91
2023/12/13 04:18:47;;;;;;;52.30;26.80;;;;;;;1.47;100.00;97762.32;271944;1270;22425;-90
2023/12/13 04:24:49;;;;;;;47.00;24.50;;;;;;;1.47;100.00;97750.68;271723;1269;22522;-91
2023/12/13 04:30:51;;;;;;;48.50;24.30;;;;;;;1.47;100.00;97738.28;270851;1270;27874;-91
2023/12/13 04:36:56;;;;;;;48.30;24.00;;;;;;;1.48;100.00;97731.69;269690;1270;22677;-89
2023/12/13 04:43:00;;;;;;;45.60;23.40;;;;;;;1.47;100.00;97719.48;271953;1270;22194;-90
2023/12/13 04:49:02;;;;;;;39.60;22.10;;;;;;;1.44;100.00;97712.55;273151;1269;22262;-90
2023/12/13 04:55:08;;;;;;;41.40;22.00;;;;;;;1.45;100.00;97707.70;273278;1269;23713;-89
2023/12/13 05:01:14;;;;;;;43.00;22.80;;;;;;;1.45;100.00;97705.62;272293;1270;22651;-91
2023/12/13 05:07:16;;;;;;;55.80;28.30;;;;;;;1.44;100.00;97703.37;272635;1269;22278;-90
2023/12/13 05:13:21;;;;;;;47.20;24.50;;;;;;;1.41;100.00;97696.38;273341;1270;23781;-90
2023/12/13 05:19:23;;;;;;;53.90;26.50;;;;;;;1.39;100.00;97690.23;273321;1270;23741;-90
2023/12/13 05:25:30;;;;;;;49.70;25.60;;;;;;;1.40;100.00;97697.63;271606;1270;22663;-91
2023/12/13 05:31:35;;;;;;;46.10;22.80;;;;;;;1.43;100.00;97693.41;272249;1269;22305;-91
2023/12/13 05:37:38;;;;;;;39.00;21.10;;;;;;;1.44;100.00;97684.71;270299;1269;22509;-90
2023/12/13 05:43:41;;;;;;;44.00;23.40;;;;;;;1.42;100.00;97683.20;270168;1259;22506;-90
2023/12/13 05:49:43;;;;;;;40.60;23.20;;;;;;;1.40;100.00;97679.06;271916;1268;22428;-90
2023/12/13 05:55:48;;;;;;;44.30;24.60;;;;;;;1.40;100.00;97668.96;271827;1270;23886;-90
2023/12/13 06:01:57;;;;;;;42.70;24.80;;;;;;;1.38;100.00;97666.15;270604;1270;25452;-89
2023/12/13 06:08:01;;;;;;;42.90;22.80;;;;;;;1.35;100.00;97660.27;270439;1256;22576;-91
2023/12/13 06:14:17;;;;;;;;;;;;;;;;;;;;;
2023/12/13 06:20:21;;;;;;;38.30;21.40;;;;;;;1.28;100.00;97665.88;271750;1269;22492;-91
2023/12/13 06:26:39;;;;;;;;;;;;;;;;;;;;;
2023/12/13 06:32:52;;;;;;;33.00;20.50;;;;;;;1.23;100.00;97662.46;271883;1269;22572;-91
2023/12/13 06:39:03;;;;;;;34.00;19.10;;;;;;;1.23;100.00;97655.43;271282;1269;22935;-91
2023/12/13 06:45:16;;;;;;;36.20;19.70;;;;;;;1.23;100.00;97658.84;271666;1269;22541;-90
2023/12/13 06:51:26;;;;;;;32.80;19.90;;;;;;;1.25;100.00;97657.17;271961;1269;22580;-91
2023/12/13 06:57:43;;;;;;;30.80;16.90;;;;;;;1.24;100.00;97655.63;272056;1268;22548;-90
2023/12/13 07:03:46;;;;;;;28.30;16.70;;;;;;;1.24;100.00;97648.23;271868;1269;25276;-90
2023/12/13 07:09:48;;;;;;;28.90;15.80;;;;;;;1.24;100.00;97633.34;271269;1269;22538;-91
2023/12/13 07:15:53;;;;;;;25.40;15.10;;;;;;;1.24;100.00;97644.07;271064;1269;22561;-91
2023/12/13 07:21:56;;;;;;;25.20;15.30;;;;;;;1.26;100.00;97650.67;271463;1268;22561;-90
2023/12/13 07:28:03;;;;;;;24.40;14.10;;;;;;;1.27;100.00;97644.54;270835;1269;22625;-93
2023/12/13 07:34:25;;;;;;;21.60;13.00;;;;;;;1.29;100.00;97640.11;272473;1269;22524;-92
2023/12/13 07:41:19;;;;;;;;;;;;;;;;;;;;;
2023/12/13 07:49:01;;;;;;;;;;;;;;;;;;;;;
2023/12/13 07:55:55;;;;;;;;;;;;;;;;;;;;;
2023/12/13 08:02:53;;;;;;;27.30;13.90;;;;;;;1.34;100.00;97636.33;270920;1269;22391;-92
2023/12/13 08:09:35;;;;;;;23.00;13.30;;;;;;;1.37;100.00;97627.92;273166;1256;22560;-92
2023/12/13 08:16:22;;;;;;;;;;;;;;;;;;;;;
2023/12/13 08:23:03;;;;;;;;;;;;;;;;;;;;;
2023/12/13 08:29:50;;;;;;;26.10;14.40;;;;;;;1.45;100.00;97598.62;269849;1275;22990;-91
2023/12/13 08:35:53;;;;;;;23.70;14.10;;;;;;;1.47;100.00;97584.11;271134;1269;23263;-92
2023/12/13 08:42:09;;;;;;;27.50;15.70;;;;;;;1.52;100.00;97575.96;271718;1269;25313;-93
2023/12/13 08:48:24;;;;;;;28.20;17.00;;;;;;;1.56;100.00;97578.16;272167;1269;23282;-92
2023/12/13 08:56:16;;;;;;;33.20;18.30;;;;;;;1.62;100.00;97588.37;272509;1269;23739;-92
2023/12/13 09:03:08;;;;;;;;;;;;;;;;;;;;;
2023/12/13 09:09:38;;;;;;;24.50;14.60;;;;;;;1.70;100.00;97582.30;272849;1262;23765;-92
2023/12/13 09:16:44;;;;;;;25.40;15.50;;;;;;;1.76;100.00;97576.23;272445;1269;22528;-92
2023/12/13 09:24:11;;;;;;;;;;;;;;;;;;;;;
2023/12/13 09:38:30;;;;;;;27.10;16.00;;;;;;;1.98;100.00;97585.19;270310;1280;22770;-92
2023/12/13 09:44:50;;;;;;;29.50;14.10;;;;;;;2.05;100.00;97580.95;269590;1269;22538;-92
2023/12/13 09:51:44;;;;;;;29.80;14.70;;;;;;;2.11;100.00;97583.09;272699;1269;22614;-91
2023/12/13 09:58:24;;;;;;;29.20;14.20;;;;;;;2.16;100.00;97575.31;272183;1269;25427;-91
2023/12/13 10:04:29;;;;;;;32.50;15.70;;;;;;;2.18;100.00;97578.67;271509;1269;22547;-90
2023/12/13 10:10:46;;;;;;;29.90;14.10;;;;;;;2.21;100.00;97572.05;272408;1269;22484;-90
2023/12/13 10:17:29;;;;;;;28.70;14.90;;;;;;;2.27;100.00;97565.91;272232;1269;22561;-90
2023/12/13 10:30:15;;;;;;;30.10;14.00;;;;;;;2.35;100.00;97563.06;271013;1269;22567;-91
2023/12/13 10:36:22;;;;;;;28.20;15.80;;;;;;;2.40;100.00;97555.20;264612;1272;8630164;-90
2023/12/13 10:42:26;;;;;;;31.40;15.50;;;;;;;2.44;100.00;97548.95;271275;1269;23354;-90
2023/12/13 10:48:35;;;;;;;30.40;15.00;;;;;;;2.46;100.00;97538.98;271639;1269;22504;-90
2023/12/13 10:54:40;;;;;;;31.50;16.50;;;;;;;2.48;100.00;97537.17;271600;1272;24260;-92
2023/12/13 11:00:45;;;;;;;35.10;17.40;;;;;;;2.48;100.00;97530.39;270921;1269;22667;-90
2023/12/13 11:07:04;;;;;;;35.90;20.20;;;;;;;2.50;100.00;97517.53;271650;1269;22515;-90
2023/12/13 11:13:22;;;;;;;40.60;21.40;;;;;;;2.56;100.00;97504.42;271213;1269;22610;-90
2023/12/13 11:19:25;;;;;;;;;;;;;;;2.60;100.00;97484.67;271449;1269;22613;-91
2023/12/13 11:25:37;;;;;;;39.20;21.50;;;;;;;2.62;100.00;97469.04;272446;1269;22307;-91
2023/12/13 11:31:52;;;;;;;42.00;22.80;;;;;;;2.65;100.00;97454.97;272249;1269;23009;-91
2023/12/13 11:37:59;;;;;;;44.80;26.80;;;;;;;2.71;100.00;97445.41;270980;1272;22520;-90
2023/12/13 11:44:02;;;;;;;55.30;28.10;;;;;;;2.82;100.00;97435.20;271411;1272;22555;-91
2023/12/13 11:50:10;;;;;;;50.10;29.30;;;;;;;2.95;100.00;97429.45;271011;1272;24303;-90
2023/12/13 11:56:12;;;;;;;59.50;33.30;;;;;;;3.07;100.00;97429.55;271150;1269;22192;-91
2023/12/13 12:02:19;;;;;;;73.90;41.50;;;;;;;3.16;100.00;97428.85;271392;1270;22560;-90
2023/12/13 12:08:25;;;;;;;78.10;42.60;;;;;;;3.16;100.00;97430.94;271304;1269;22541;-91
2023/12/13 12:14:28;;;;;;;68.80;39.30;;;;;;;3.10;100.00;97433.00;271703;1269;22741;-90
2023/12/13 12:20:30;;;;;;;68.20;39.60;;;;;;;3.10;100.00;97442.20;270807;1269;22549;-91
2023/12/13 12:26:32;;;;;;;81.80;45.20;;;;;;;3.12;100.00;97448.95;270746;1269;22628;-90
2023/12/13 12:32:35;;;;;;;81.90;44.80;;;;;;;3.18;100.00;97451.59;271777;1269;22574;-90
2023/12/13 12:38:37;;;;;;;87.00;43.60;;;;;;;3.19;100.00;97463.50;270988;1270;22343;-90
2023/12/13 12:44:48;;;;;;;82.90;42.40;;;;;;;3.17;100.00;97463.16;270761;1269;25252;-91
2023/12/13 12:50:55;;;;;;;79.40;40.00;;;;;;;3.19;100.00;97456.55;272339;1272;22526;-91
2023/12/13 12:57:00;;;;;;;78.90;41.20;;;;;;;3.27;100.00;97452.96;271674;1269;22432;-90
2023/12/13 13:03:06;;;;;;;77.30;40.50;;;;;;;3.31;100.00;97456.33;272221;1269;22705;-91
2023/12/13 13:09:08;;;;;;;79.60;39.30;;;;;;;3.33;100.00;97457.14;272072;1269;22219;-90
2023/12/13 13:15:11;;;;;;;81.20;38.50;;;;;;;3.34;100.00;97461.01;271417;1269;23746;-91
2023/12/13 13:21:13;;;;;;;99.20;41.20;;;;;;;3.35;100.00;97459.73;270271;1272;22539;-92
2023/12/13 13:27:17;;;;;;;83.70;40.80;;;;;;;3.37;100.00;97458.28;270477;1270;27706;-92
2023/12/13 13:33:19;;;;;;;89.70;41.90;;;;;;;3.37;100.00;97459.21;270833;1272;22677;-92
2023/12/13 13:39:22;;;;;;;91.60;44.50;;;;;;;3.42;100.00;97462.84;271796;1270;22306;-91
2023/12/13 13:45:26;;;;;;;75.50;41.30;;;;;;;3.43;100.00;97464.48;270477;1270;23856;-92
2023/12/13 13:51:29;;;;;;;65.30;34.50;;;;;;;3.40;100.00;97464.51;271786;1270;22563;-90
2023/12/13 13:57:32;;;;;;;61.50;34.40;;;;;;;3.36;100.00;97461.67;270881;1270;22981;-91
2023/12/13 14:03:37;;;;;;;51.40;30.10;;;;;;;3.34;100.00;97457.23;270785;1270;24040;-91
2023/12/13 14:09:40;;;;;;;45.30;28.10;;;;;;;3.33;100.00;97460.85;270956;1269;23073;-91
2023/12/13 14:15:43;;;;;;;48.30;27.70;;;;;;;3.31;100.00;97458.66;271144;1269;25376;-91
2023/12/13 14:21:46;;;;;;;49.60;28.20;;;;;;;3.31;100.00;97462.98;270626;1270;22603;-91
2023/12/13 14:27:49;;;;;;;45.50;27.90;;;;;;;3.30;100.00;97462.89;272786;1270;22927;-91
2023/12/13 14:33:52;;;;;;;42.50;25.90;;;;;;;3.28;100.00;97468.51;270673;1269;25348;-92
2023/12/13 14:39:54;;;;;;;49.80;25.00;;;;;;;3.26;100.00;97463.98;271688;1272;22408;-91
2023/12/13 14:45:57;;;;;;;47.70;26.50;;;;;;;3.24;100.00;97457.02;272721;1268;22185;-92
2023/12/13 14:52:04;;;;;;;53.30;27.00;;;;;;;3.22;100.00;97457.98;271866;1270;23485;-91
2023/12/13 14:58:06;;;;;;;45.90;25.40;;;;;;;3.20;100.00;97463.84;270001;1269;24159;-92
2023/12/13 15:04:09;;;;;;;49.00;28.20;;;;;;;3.16;100.00;97457.80;270653;1269;22509;-92
2023/12/13 15:10:14;;;;;;;48.30;28.20;;;;;;;3.17;100.00;97466.17;271315;1269;23309;-92
2023/12/13 15:16:16;;;;;;;50.60;28.50;;;;;;;3.21;100.00;97477.67;272855;1269;22368;-92
2023/12/13 15:22:20;;;;;;;47.50;28.50;;;;;;;3.22;100.00;97483.95;271774;1269;22236;-92
2023/12/13 15:28:23;;;;;;;46.80;27.30;;;;;;;3.25;100.00;97479.83;273688;1270;22391;-92
2023/12/13 15:34:26;;;;;;;54.80;35.20;;;;;;;3.26;100.00;97490.20;271491;1270;22536;-92
2023/12/13 15:40:29;;;;;;;53.30;31.40;;;;;;;3.26;100.00;97494.52;272948;1270;22342;-93
2023/12/13 15:46:31;;;;;;;49.40;27.70;;;;;;;3.23;100.00;97499.56;271855;1270;22314;-93
2023/12/13 15:52:36;;;;;;;63.10;35.40;;;;;;;3.17;100.00;97509.52;273342;1272;22401;-92
2023/12/13 15:58:48;;;;;;;58.00;34.50;;;;;;;3.13;100.00;97516.25;272436;1269;23068;-92
2023/12/13 16:04:52;;;;;;;63.10;38.20;;;;;;;3.10;100.00;97510.88;270935;1270;22552;-92
2023/12/13 16:10:57;;;;;;;68.10;38.40;;;;;;;3.04;100.00;97516.27;271398;1269;24251;-92
2023/12/13 16:16:59;;;;;;;72.20;40.50;;;;;;;3.03;100.00;97513.53;272454;1272;22294;-92
2023/12/13 16:23:03;;;;;;;60.50;36.50;;;;;;;3.00;100.00;97507.23;273596;1269;22197;-92
2023/12/13 16:29:06;;;;;;;66.00;36.10;;;;;;;3.02;100.00;97506.17;273833;1254;22214;-91
2023/12/13 16:35:08;;;;;;;57.10;33.90;;;;;;;3.04;100.00;97503.05;271288;1272;23691;-91
2023/12/13 16:41:10;;;;;;;62.40;36.10;;;;;;;3.06;100.00;97509.88;270942;1272;22690;-91
2023/12/13 16:47:12;;;;;;;60.30;35.60;;;;;;;3.09;100.00;97512.16;271104;1272;22577;-91
2023/12/13 16:53:15;;;;;;;59.30;37.10;;;;;;;3.05;100.00;97521.06;271751;1269;22549;-90
2023/12/13 16:59:17;;;;;;;65.90;37.50;;;;;;;3.05;100.00;97517.50;272741;1273;22192;-90
2023/12/13 17:05:23;;;;;;;69.00;45.20;;;;;;;3.06;100.00;97507.79;271249;1272;23360;-91
2023/12/13 17:11:32;;;;;;;58.90;40.60;;;;;;;3.03;100.00;97504.41;271390;1272;23737;-91
2023/12/13 17:17:34;;;;;;;57.10;37.20;;;;;;;2.98;100.00;97498.55;270634;1272;22655;-90
2023/12/13 17:23:36;;;;;;;108.40;53.70;;;;;;;2.98;100.00;97496.14;271410;1270;22540;-92
2023/12/13 17:29:42;;;;;;;94.10;52.40;;;;;;;2.98;100.00;97494.54;271776;1272;23354;-91
2023/12/13 17:35:50;;;;;;;90.80;51.10;;;;;;;3.00;100.00;97495.43;271833;1269;23743;-92
2023/12/13 17:42:15;;;;;;;98.10;51.50;;;;;;;3.05;100.00;97494.88;272104;1272;23535;-90
2023/12/13 17:48:17;;;;;;;91.00;52.00;;;;;;;3.07;100.00;97494.75;271959;1270;25313;-90
2023/12/13 17:54:20;;;;;;;101.20;52.80;;;;;;;3.06;100.00;97492.20;271398;1273;22546;-92
2023/12/13 18:00:33;;;;;;;80.00;44.70;;;;;;;3.06;100.00;97488.41;256197;1270;10002096;-91
2023/12/13 18:06:36;;;;;;;94.30;50.50;;;;;;;3.07;100.00;97488.80;271360;1272;22938;-92
2023/12/13 18:12:42;;;;;;;87.30;48.60;;;;;;;3.07;100.00;97488.58;272401;1273;23251;-91
2023/12/13 18:18:44;;;;;;;67.40;39.60;;;;;;;3.08;100.00;97478.78;272862;1272;22404;-92
2023/12/13 18:24:49;;;;;;;62.80;36.50;;;;;;;3.09;100.00;97474.24;271573;1270;22538;-91
2023/12/13 18:30:52;;;;;;;75.70;38.60;;;;;;;3.08;100.00;97470.42;270772;1269;22556;-91
2023/12/13 18:36:54;;;;;;;70.50;38.30;;;;;;;3.04;100.00;97474.16;272193;1269;22905;-92
2023/12/13 18:43:03;;;;;;;80.60;46.10;;;;;;;3.05;100.00;97470.31;271609;1270;23957;-91
2023/12/13 18:49:09;;;;;;;65.50;40.00;;;;;;;3.07;100.00;97456.67;271905;1270;23218;-92
2023/12/13 18:55:15;;;;;;;59.10;36.50;;;;;;;3.06;100.00;97459.75;270829;1269;22555;-92
2023/12/13 19:01:20;;;;;;;57.50;32.80;;;;;;;3.03;100.00;97466.80;272742;1270;23414;-92
2023/12/13 19:07:25;;;;;;;56.60;33.90;;;;;;;2.98;100.00;97480.09;272875;1270;22531;-92
2023/12/13 19:13:27;;;;;;;55.20;32.00;;;;;;;2.99;100.00;97491.85;271824;1270;22217;-91
2023/12/13 19:19:33;;;;;;;52.90;32.50;;;;;;;2.98;100.00;97505.27;272243;1270;22251;-91
2023/12/13 19:25:35;;;;;;;69.20;36.80;;;;;;;2.95;100.00;97511.08;271247;1272;22553;-91
2023/12/13 19:31:55;;;;;;;;;;;;;;;;;;;;;
2023/12/13 19:38:09;;;;;;;84.40;44.20;;;;;;;3.00;100.00;97520.52;271535;1270;23277;-93
2023/12/13 19:44:20;;;;;;;78.80;42.00;;;;;;;3.02;100.00;97526.73;272651;1269;23307;-92
2023/12/13 19:50:34;;;;;;;81.40;44.00;;;;;;;3.04;100.00;97530.55;273460;1269;22414;-92
2023/12/13 19:56:46;;;;;;;77.90;43.00;;;;;;;3.03;100.00;97531.54;271204;1270;22546;-93
2023/12/13 20:03:00;;;;;;;76.20;40.70;;;;;;;2.98;100.00;97531.75;271537;1272;22548;-91
2023/12/13 20:09:17;;;;;;;83.90;44.40;;;;;;;2.91;100.00;97530.01;272669;1269;22434;-92
2023/12/13 20:15:35;;;;;;;77.10;38.10;;;;;;;2.89;100.00;97539.71;271592;1269;22540;-92
2023/12/13 20:21:39;;;;;;;88.20;42.20;;;;;;;2.92;100.00;97541.46;272820;1270;23346;-93
2023/12/13 20:27:56;;;;;;;98.70;43.20;;;;;;;2.91;100.00;97544.28;271162;1269;22541;-92
2023/12/13 20:34:15;;;;;;;;;;;;;;;;;;;;;
2023/12/13 20:40:33;;;;;;;111.60;44.90;;;;;;;2.88;100.00;97558.98;271514;1271;22566;-92
2023/12/13 20:46:50;;;;;;;125.40;48.20;;;;;;;2.92;100.00;97563.69;270872;1273;22556;-94
2023/12/13 20:52:56;;;;;;;129.00;49.20;;;;;;;2.94;100.00;97571.45;270783;1260;22619;-92
2023/12/13 20:59:37;;;;;;;136.20;50.70;;;;;;;2.95;100.00;97576.96;272665;1269;22554;-93
2023/12/13 21:13:51;;;;;;;134.30;48.50;;;;;;;2.96;100.00;97589.95;271741;1269;22554;-93
2023/12/13 21:20:07;;;;;;;132.70;48.80;;;;;;;2.94;100.00;97600.86;271205;1269;22605;-93
2023/12/13 21:26:28;;;;;;;131.00;46.70;;;;;;;2.95;100.00;97612.34;271509;1269;22605;-93
2023/12/13 21:32:44;;;;;;;102.20;35.60;;;;;;;2.95;100.00;97618.74;271469;1269;27631;-92
2023/12/13 21:38:54;;;;;;;138.90;48.30;;;;;;;2.94;100.00;97625.66;271678;1269;22560;-93
2023/12/13 21:45:31;;;;;;;135.10;47.70;;;;;;;2.95;100.00;97625.70;270892;1270;22568;-93
2023/12/13 21:51:52;;;;;;;126.70;46.10;;;;;;;2.97;100.00;97621.03;270641;1269;22524;-91
2023/12/13 21:58:10;;;;;;;128.70;46.50;;;;;;;2.96;100.00;97617.92;271390;1269;23440;-93
2023/12/13 22:04:42;;;;;;;127.30;43.80;;;;;;;2.94;100.00;97613.39;271001;1269;22552;-92
2023/12/13 22:10:56;;;;;;;124.60;45.30;;;;;;;2.94;100.00;97613.48;272170;1269;22980;-92
2023/12/13 22:17:38;;;;;;;119.90;42.50;;;;;;;2.91;100.00;97612.93;272888;1269;22638;-92
2023/12/13 22:23:56;;;;;;;111.00;40.90;;;;;;;2.87;100.00;97612.95;271623;1269;22212;-93
2023/12/13 22:30:11;;;;;;;122.10;41.50;;;;;;;2.91;100.00;97617.73;273154;1269;22709;-92
2023/12/13 22:44:18;;;;;;;110.90;40.30;;;;;;;3.00;100.00;97617.52;273469;1272;22545;-91
2023/12/13 22:50:50;;;;;;;115.30;39.00;;;;;;;3.00;100.00;97623.23;273042;1268;22252;-92
2023/12/13 22:57:08;;;;;;;114.90;40.50;;;;;;;2.99;100.00;97627.79;273661;1269;23685;-91
2023/12/13 23:03:45;;;;;;;;;;;;;;;;;;;;;
2023/12/13 23:10:28;;;;;;;104.00;37.20;;;;;;;2.98;100.00;97636.48;271615;1270;24227;-91
2023/12/13 23:17:28;;;;;;;104.30;39.70;;;;;;;2.93;100.00;97639.78;272340;1269;22187;-93
2023/12/13 23:23:51;;;;;;;95.90;37.10;;;;;;;2.96;100.00;97642.84;272490;1269;27428;-91
2023/12/13 23:29:58;;;;;;;99.00;36.50;;;;;;;2.95;100.00;97642.90;273228;1269;22568;-92
2023/12/13 23:51:29;;;;;;;104.20;40.20;;;;;;;2.97;100.00;97665.05;273486;1269;22178;-91
2023/12/13 23:57:37;;;;;;;102.00;40.80;;;;;;;2.99;100.00;97674.97;273248;1267;22644;-91
